Time;durP1;ratioP1;P1;durP2;ratioP2;P2;SDS_P1;SDS_P2;PMS_P1;PMS_P2;Temp;Humidity;BMP_temperature;BMP_pressure;BME280_temperature;BME280_humidity;BME280_pressure;Samples;Min_cycle;Max_cycle;Signal;HPM_P1;HPM_P2
2023/09/22 00:00:11;;;;;;;8.20;4.17;;;;;;;19.72;59.80;100511.80;127714;1086;101909;-76
2023/09/22 00:02:59;;;;;;;10.17;3.97;;;;;;;19.71;59.67;100520.70;128219;1085;101771;-77
2023/09/22 00:05:28;;;;;;;7.63;3.87;;;;;;;19.69;60.93;100519.80;127141;1086;104222;-77
2023/09/22 00:07:57;;;;;;;9.00;4.13;;;;;;;19.67;59.82;100518.05;127130;1086;104165;-77
2023/09/22 00:10:25;;;;;;;9.67;4.20;;;;;;;19.63;60.85;100514.48;127262;1086;101806;-77
2023/09/22 00:12:54;;;;;;;13.10;4.37;;;;;;;19.61;60.48;100516.27;126889;1086;104153;-77
2023/09/22 00:15:23;;;;;;;9.10;4.10;;;;;;;19.58;60.05;100513.61;126977;1086;101826;-77
2023/09/22 00:17:52;;;;;;;11.33;4.10;;;;;;;19.53;60.79;100512.73;127010;1086;104165;-77
2023/09/22 00:20:20;;;;;;;10.83;4.20;;;;;;;19.49;60.97;100513.61;127073;1086;102171;-76
2023/09/22 00:22:49;;;;;;;11.47;4.00;;;;;;;19.42;61.15;100511.86;127386;1086;102037;-78
2023/09/22 00:25:18;;;;;;;11.20;3.90;;;;;;;19.38;61.16;100516.28;128920;1085;101800;-77
2023/09/22 00:27:46;;;;;;;10.50;4.15;;;;;;;19.34;61.44;100520.72;127324;1086;104076;-76
2023/09/22 00:30:15;;;;;;;10.50;4.30;;;;;;;19.30;61.70;100521.59;127183;1086;102034;-77
2023/09/22 00:32:44;;;;;;;12.87;4.50;;;;;;;19.27;61.44;100518.94;127165;1086;104228;-78
2023/09/22 00:35:14;;;;;;;8.23;4.00;;;;;;;19.26;61.52;100517.19;127277;1086;102073;-77
2023/09/22 00:37:42;;;;;;;8.83;3.80;;;;;;;19.22;61.39;100510.95;127279;1086;101746;-77
2023/09/22 00:40:12;;;;;;;7.90;3.93;;;;;;;19.20;61.89;100515.39;127042;1086;104228;-78
2023/09/22 00:42:43;;;;;;;13.87;3.70;;;;;;;19.18;61.30;100521.59;126988;1085;104194;-77
2023/09/22 00:45:14;;;;;;;8.80;4.00;;;;;;;19.16;61.30;100512.73;127608;1086;104258;-77
2023/09/22 00:47:43;;;;;;;11.00;4.33;;;;;;;19.14;62.06;100512.73;127590;1086;104229;-78
2023/09/22 00:50:12;;;;;;;8.40;4.17;;;;;;;19.12;61.66;100518.92;127687;1086;104018;-78
2023/09/22 00:52:42;;;;;;;7.40;3.80;;;;;;;19.10;61.76;100512.73;127418;1086;104724;-77
2023/09/22 00:55:11;;;;;;;7.70;3.77;;;;;;;19.08;62.20;100509.19;127624;1086;101787;-77
2023/09/22 00:57:40;;;;;;;10.43;4.13;;;;;;;19.06;62.32;100516.26;127653;1086;104255;-77
2023/09/22 01:00:12;;;;;;;12.93;4.00;;;;;;;19.03;61.72;100519.83;127499;1086;101692;-78
2023/09/22 01:02:41;;;;;;;10.07;4.40;;;;;;;19.00;62.59;100518.03;127354;1086;101790;-78
2023/09/22 01:05:10;;;;;;;7.27;4.17;;;;;;;18.95;62.50;100517.15;127289;1085;102229;-77
2023/09/22 01:07:40;;;;;;;10.13;4.10;;;;;;;18.91;62.79;100511.83;127196;1086;104258;-77
2023/09/22 01:10:09;;;;;;;12.03;4.10;;;;;;;18.88;62.19;100515.35;127473;1086;104213;-77
2023/09/22 01:12:38;;;;;;;13.30;4.50;;;;;;;18.84;62.69;100509.16;127018;1086;104031;-77
2023/09/22 01:15:09;;;;;;;10.47;4.30;;;;;;;18.81;62.92;100508.23;126995;1086;104207;-77
2023/09/22 01:17:39;;;;;;;12.47;4.60;;;;;;;18.80;62.93;100511.77;127436;1086;104228;-77
2023/09/22 01:20:10;;;;;;;13.00;4.50;;;;;;;18.76;63.12;100505.56;127089;1086;101787;-78
2023/09/22 01:22:39;;;;;;;12.43;4.37;;;;;;;18.74;63.38;100502.00;127185;1085;101903;-78
2023/09/22 01:25:08;;;;;;;11.03;4.10;;;;;;;18.74;63.10;100501.13;127337;1086;104094;-77
2023/09/22 01:27:37;;;;;;;9.47;4.00;;;;;;;18.75;62.81;100497.59;127300;1085;104283;-77
2023/09/22 01:30:09;;;;;;;12.93;4.80;;;;;;;18.75;63.25;100511.75;127471;1086;102413;-78
2023/09/22 01:32:38;;;;;;;16.10;4.20;;;;;;;18.73;63.40;100505.56;127538;1085;104152;-80
2023/09/22 01:35:09;;;;;;;8.10;4.27;;;;;;;18.72;63.45;100505.55;128087;1086;101986;-78
2023/09/22 01:37:45;;;;;;;8.67;4.43;;;;;;;18.68;63.21;100505.55;127490;1086;102056;-78
2023/09/22 01:40:16;;;;;;;13.83;4.47;;;;;;;18.63;63.57;100507.28;127879;1085;101778;-78
2023/09/22 01:42:45;;;;;;;11.50;4.20;;;;;;;18.60;63.63;100503.74;127844;1086;101809;-77
2023/09/22 01:45:14;;;;;;;10.73;4.10;;;;;;;18.58;63.67;100508.17;127594;1086;102060;-78
2023/09/22 01:47:42;;;;;;;8.13;4.30;;;;;;;18.57;63.97;100509.92;127689;1086;101790;-78
2023/09/22 01:50:11;;;;;;;11.87;4.57;;;;;;;18.57;64.01;100504.61;127725;1085;101743;-78
2023/09/22 01:52:40;;;;;;;6.50;4.23;;;;;;;18.55;64.00;100506.38;127791;1086;101761;-78
2023/09/22 01:55:10;;;;;;;10.37;4.07;;;;;;;18.55;64.42;100511.70;127772;1085;102053;-77
2023/09/22 01:57:39;;;;;;;14.47;4.60;;;;;;;18.53;64.58;100516.13;127666;1085;104255;-78
2023/09/22 02:00:10;;;;;;;12.50;4.60;;;;;;;18.49;64.15;100504.58;127746;1086;104184;-78
2023/09/22 02:02:43;;;;;;;11.05;4.83;;;;;;;18.48;64.25;100516.11;127734;1085;101992;-78
2023/09/22 02:05:12;;;;;;;11.50;4.60;;;;;;;18.45;64.44;100518.76;127601;1086;101880;-77
2023/09/22 02:07:41;;;;;;;9.15;4.30;;;;;;;18.41;64.38;100514.30;127746;1086;104168;-78
2023/09/22 02:10:11;;;;;;;7.87;4.53;;;;;;;18.39;64.93;100517.86;127690;1086;102160;-79
2023/09/22 02:12:40;;;;;;;12.20;4.53;;;;;;;18.37;65.02;100523.16;128287;1085;102034;-78
2023/09/22 02:15:09;;;;;;;13.43;4.60;;;;;;;18.35;65.21;100516.06;127833;1086;102015;-78
2023/09/22 02:17:38;;;;;;;11.53;4.20;;;;;;;18.30;65.11;100513.38;127882;1086;102047;-78
2023/09/22 02:20:17;;;;;;;10.80;4.70;;;;;;;18.27;65.05;100519.55;128201;1086;101787;-78
2023/09/22 02:22:47;;;;;;;11.10;4.70;;;;;;;18.24;65.23;100523.98;127920;1086;101819;-77
2023/09/22 02:25:17;;;;;;;11.13;4.47;;;;;;;18.21;65.28;100516.88;127930;1086;102233;-77
2023/09/22 02:27:47;;;;;;;13.33;4.77;;;;;;;18.15;65.58;100522.16;127923;1086;101757;-79
2023/09/22 02:30:17;;;;;;;11.00;4.50;;;;;;;18.11;65.38;100515.08;127577;1086;104150;-78
2023/09/22 02:32:48;;;;;;;11.27;4.60;;;;;;;18.07;65.85;100526.55;127664;1086;104184;-78
2023/09/22 02:35:18;;;;;;;8.40;4.30;;;;;;;18.03;65.86;100532.70;127680;1085;104053;-78
2023/09/22 02:37:46;;;;;;;10.07;4.53;;;;;;;17.99;65.94;100526.50;127438;1086;102028;-79
2023/09/22 02:40:15;;;;;;;11.03;4.50;;;;;;;17.96;66.34;100527.36;127945;1085;102112;-77
2023/09/22 02:42:44;;;;;;;11.33;4.20;;;;;;;17.94;66.60;100530.91;127585;1086;102203;-78
2023/09/22 02:45:15;;;;;;;11.90;4.33;;;;;;;17.92;66.54;100533.55;127722;1086;104169;-77
2023/09/22 02:47:44;;;;;;;9.93;4.53;;;;;;;17.91;66.81;100529.11;127638;1086;104088;-78
2023/09/22 02:50:15;;;;;;;12.50;4.23;;;;;;;17.91;66.81;100517.61;128017;1086;103262;-77
2023/09/22 02:52:44;;;;;;;10.47;4.20;;;;;;;17.91;67.14;100507.87;127944;1086;101803;-78
2023/09/22 02:55:14;;;;;;;11.87;4.40;;;;;;;17.91;66.83;100520.27;127851;1086;104111;-77
2023/09/22 02:57:42;;;;;;;10.93;4.37;;;;;;;17.89;67.10;100519.38;127621;1085;104117;-77
2023/09/22 03:00:14;;;;;;;10.60;4.43;;;;;;;17.89;67.48;100514.08;127624;1086;104215;-77
2023/09/22 03:02:44;;;;;;;12.25;4.53;;;;;;;17.90;67.33;100518.48;127418;1086;104169;-77
2023/09/22 03:05:15;;;;;;;12.60;4.57;;;;;;;17.87;67.40;100510.47;127583;1086;102002;-78
2023/09/22 03:07:44;;;;;;;11.17;4.73;;;;;;;17.82;67.54;100504.25;127428;1086;104159;-78
2023/09/22 03:10:14;;;;;;;11.53;4.70;;;;;;;17.81;67.65;100507.77;127338;1086;105514;-79
2023/09/22 03:12:43;;;;;;;12.97;4.60;;;;;;;17.77;67.96;100505.09;127295;1086;104156;-79
2023/09/22 03:15:12;;;;;;;14.20;4.97;;;;;;;17.76;67.85;100507.74;127392;1086;101931;-79
2023/09/22 03:17:42;;;;;;;12.40;5.27;;;;;;;17.73;68.19;100513.94;127470;1085;104248;-79
2023/09/22 03:20:12;;;;;;;11.70;4.80;;;;;;;17.72;68.25;100511.28;127389;1086;104283;-78
2023/09/22 03:22:42;;;;;;;11.67;4.80;;;;;;;17.70;68.32;100513.92;127398;1086;102041;-80
2023/09/22 03:25:11;;;;;;;11.30;4.90;;;;;;;17.71;68.53;100517.45;127043;1085;101823;-79
2023/09/22 03:27:41;;;;;;;9.60;4.63;;;;;;;17.71;68.45;100517.45;126735;1086;104246;-78
2023/09/22 03:30:11;;;;;;;11.57;4.87;;;;;;;17.69;68.33;100516.56;126933;1086;104130;-79
2023/09/22 03:32:41;;;;;;;9.90;4.23;;;;;;;17.66;68.28;100519.20;126844;1086;104255;-79
2023/09/22 03:35:11;;;;;;;10.73;5.07;;;;;;;17.59;68.61;100520.89;126847;1086;102002;-77
2023/09/22 03:37:40;;;;;;;10.50;5.13;;;;;;;17.57;68.53;100522.66;126802;1086;104257;-78
2023/09/22 03:40:14;;;;;;;14.43;5.20;;;;;;;17.54;68.75;100527.94;126768;1086;102143;-77
2023/09/22 03:42:43;;;;;;;12.67;5.07;;;;;;;17.53;68.62;100547.38;126785;1085;102702;-76
2023/09/22 03:45:12;;;;;;;12.07;4.77;;;;;;;17.49;69.34;100524.38;126852;1086;104178;-78
2023/09/22 03:47:41;;;;;;;10.50;5.07;;;;;;;17.49;69.13;100529.68;127187;1086;104188;-78
2023/09/22 03:50:10;;;;;;;13.47;5.13;;;;;;;17.46;69.91;100534.96;127125;1086;102063;-78
2023/09/22 03:52:39;;;;;;;10.07;4.73;;;;;;;17.44;69.55;100532.30;127055;1086;104216;-79
2023/09/22 03:55:10;;;;;;;11.63;4.90;;;;;;;17.45;69.64;100536.70;127059;1086;102099;-77
2023/09/22 03:57:38;;;;;;;10.23;5.20;;;;;;;17.48;69.98;100535.84;126561;1086;104264;-77
2023/09/22 04:00:17;;;;;;;13.00;5.40;;;;;;;17.48;70.23;100536.73;126718;1086;104216;-77
2023/09/22 04:02:46;;;;;;;13.10;5.30;;;;;;;17.49;70.29;100545.59;126665;1086;104155;-77
2023/09/22 04:05:15;;;;;;;15.33;5.10;;;;;;;17.48;70.43;100536.73;126662;1086;104319;-77
2023/09/22 04:07:44;;;;;;;13.33;5.43;;;;;;;17.50;70.51;100542.95;126802;1086;101854;-78
2023/09/22 04:10:13;;;;;;;12.50;5.77;;;;;;;17.46;70.34;100530.53;126833;1086;104203;-77
2023/09/22 04:12:47;;;;;;;12.07;5.57;;;;;;;17.46;70.48;100538.48;127081;1086;101813;-76
2023/09/22 04:15:16;;;;;;;11.27;5.27;;;;;;;17.47;70.86;100536.72;127049;1086;104223;-76
2023/09/22 04:17:46;;;;;;;13.23;5.73;;;;;;;17.49;71.09;100534.98;126719;1085;104153;-78
2023/09/22 04:20:18;;;;;;;15.20;6.00;;;;;;;17.50;70.98;100532.34;126844;1086;101809;-77
2023/09/22 04:22:46;;;;;;;14.13;5.80;;;;;;;17.48;71.22;100528.77;126881;1086;101921;-78
2023/09/22 04:25:19;;;;;;;11.57;5.67;;;;;;;17.47;71.33;100531.41;127991;1085;101995;-77
2023/09/22 04:27:54;;;;;;;12.97;5.43;;;;;;;17.47;71.70;100526.11;127951;1085;102203;-77
2023/09/22 04:30:24;;;;;;;12.27;5.67;;;;;;;17.49;71.40;100537.64;126975;1086;104181;-77
2023/09/22 04:32:54;;;;;;;16.60;6.60;;;;;;;17.52;71.62;100535.01;127219;1086;101865;-81
2023/09/22 04:35:23;;;;;;;13.07;5.87;;;;;;;17.52;72.33;100519.09;127842;1086;101790;-79
2023/09/22 04:37:52;;;;;;;13.00;5.83;;;;;;;17.52;72.04;100519.97;127295;1086;102145;-77
2023/09/22 04:40:24;;;;;;;18.30;6.20;;;;;;;17.52;72.06;100522.63;127818;1085;104197;-78
2023/09/22 04:42:53;;;;;;;17.07;6.27;;;;;;;17.57;72.21;100533.27;126782;1086;104063;-77
2023/09/22 04:45:23;;;;;;;14.73;6.73;;;;;;;17.59;72.17;100527.11;127012;1086;102346;-77
2023/09/22 04:47:52;;;;;;;17.47;6.00;;;;;;;17.65;72.28;100534.20;127125;1086;101887;-77
2023/09/22 04:50:21;;;;;;;12.70;5.73;;;;;;;17.69;72.39;100538.67;127035;1086;102166;-76
2023/09/22 04:52:50;;;;;;;13.10;6.20;;;;;;;17.74;72.55;100536.05;127455;1086;104261;-78
2023/09/22 04:55:19;;;;;;;15.00;6.43;;;;;;;17.76;72.59;100532.54;126971;1086;104248;-78
2023/09/22 04:57:48;;;;;;;13.60;6.10;;;;;;;17.79;72.84;100529.00;126945;1086;104187;-78
2023/09/22 05:00:17;;;;;;;15.90;6.57;;;;;;;17.84;72.91;100529.03;127021;1086;102003;-78
2023/09/22 05:02:46;;;;;;;14.17;6.60;;;;;;;17.90;73.18;100523.79;127074;1086;102568;-80
2023/09/22 05:05:18;;;;;;;13.37;6.23;;;;;;;17.94;73.26;100526.47;126881;1086;104165;-79
2023/09/22 05:07:47;;;;;;;17.33;6.33;;;;;;;18.02;73.42;100522.98;126922;1086;104171;-77
2023/09/22 05:10:16;;;;;;;13.63;6.03;;;;;;;18.10;73.45;100524.78;126531;1086;104232;-75
2023/09/22 05:12:45;;;;;;;15.77;6.10;;;;;;;18.19;73.25;100526.61;126646;1086;104198;-76
2023/09/22 05:15:14;;;;;;;14.07;6.13;;;;;;;18.29;73.75;100522.22;126977;1086;102251;-79
2023/09/22 05:17:43;;;;;;;10.80;5.40;;;;;;;18.40;73.79;100533.80;126696;1086;104164;-77
2023/09/22 05:20:14;;;;;;;15.70;6.57;;;;;;;18.48;73.58;100528.48;126578;1085;104325;-74
2023/09/22 05:22:44;;;;;;;12.37;5.87;;;;;;;18.57;73.52;100531.18;127938;1085;101813;-76
2023/09/22 05:25:14;;;;;;;11.43;5.70;;;;;;;18.65;73.71;100529.45;126885;1086;101900;-76
2023/09/22 05:27:47;;;;;;;13.23;6.40;;;;;;;18.74;74.00;100536.55;126771;1086;104191;-79
2023/09/22 05:30:31;;;;;;;12.73;5.72;;;;;;;18.82;74.43;100533.91;127006;1086;104169;-80
2023/09/22 05:35:53;;;;;;;15.17;6.37;;;;;;;19.01;73.79;100532.20;126818;1086;104238;-76
2023/09/22 05:38:22;;;;;;;13.50;6.50;;;;;;;19.08;74.34;100538.45;126834;1086;104318;-76
2023/09/22 05:40:53;;;;;;;15.80;6.30;;;;;;;19.12;74.36;100532.22;126898;1086;104177;-78
2023/09/22 05:43:22;;;;;;;14.00;6.00;;;;;;;19.18;73.93;100537.55;126270;1086;104326;-75
2023/09/22 05:45:54;;;;;;;13.97;5.90;;;;;;;19.24;73.82;100540.22;126788;1086;104252;-74
2023/09/22 05:48:24;;;;;;;16.53;6.30;;;;;;;19.31;73.96;100543.79;127824;1086;101919;-74
2023/09/22 05:50:57;;;;;;;13.73;6.40;;;;;;;19.38;74.23;100542.88;126505;1086;104261;-76
2023/09/22 05:53:29;;;;;;;12.20;5.63;;;;;;;19.45;73.99;100547.33;126785;1086;102353;-82
2023/09/22 05:56:10;;;;;;;12.20;6.17;;;;;;;19.52;74.48;100551.75;126729;1086;102040;-78
2023/09/22 05:59:00;;;;;;;14.93;5.80;;;;;;;19.55;74.98;100532.23;127674;1085;101806;-77
2023/09/22 06:01:35;;;;;;;17.73;6.90;;;;;;;19.66;74.22;100532.23;127490;1086;104207;-77
2023/09/22 06:04:09;;;;;;;17.80;6.90;;;;;;;19.70;74.78;100542.00;127611;1086;101813;-77
2023/09/22 06:06:36;;;;;;;;;;;;;;;19.77;74.08;100545.56;126519;1086;104145;-77
2023/09/22 06:09:10;;;;;;;12.50;5.63;;;;;;;19.84;75.12;100547.34;126593;1086;104162;-77
2023/09/22 06:11:52;;;;;;;13.60;6.00;;;;;;;19.90;75.05;100544.67;126580;1085;101991;-77
2023/09/22 06:14:40;;;;;;;13.80;5.97;;;;;;;19.98;75.24;100544.66;126785;1086;102008;-77
2023/09/22 06:17:16;;;;;;;13.30;5.33;;;;;;;20.05;74.52;100543.73;126782;1086;104197;-77
2023/09/22 06:20:07;;;;;;;;;;;;;;;;;;;;;
2023/09/22 06:23:10;;;;;;;;;;;;;;;;;;;;;
2023/09/22 06:26:04;;;;;;;;;;;;;;;;;;;;;
2023/09/22 06:28:50;;;;;;;17.10;5.60;;;;;;;20.41;75.30;100558.73;126324;1086;104306;-76
2023/09/22 06:34:51;;;;;;;12.67;5.80;;;;;;;20.69;74.76;100558.61;127430;1089;102073;-81
2023/09/22 06:37:48;;;;;;;12.13;5.40;;;;;;;20.79;75.21;100556.81;127474;1089;104366;-76
2023/09/22 06:40:47;;;;;;;;;;;;;;;;;;;;;
2023/09/22 06:43:43;;;;;;;;;;;;;;;;;;;;;
2023/09/22 06:46:35;;;;;;;11.83;4.87;;;;;;;21.14;74.69;100558.36;127776;1086;112696;-81
2023/09/22 06:49:37;;;;;;;13.17;5.17;;;;;;;21.24;75.25;100553.83;127491;1086;102005;-79
2023/09/22 06:52:58;;;;;;;;;;;;;;;;;;;;;
2023/09/22 06:55:38;;;;;;;11.03;4.57;;;;;;;21.60;75.29;100566.05;127615;1086;101911;-77
2023/09/22 06:58:23;;;;;;;12.50;4.20;;;;;;;21.76;74.42;100572.13;126823;1086;104180;-80
2023/09/22 07:01:09;;;;;;;5.97;3.50;;;;;;;21.92;74.67;100582.67;127805;1085;104216;-81
2023/09/22 07:04:41;;;;;;;;;;;;;;;;;;;;;
2023/09/22 07:08:07;;;;;;;6.47;3.40;;;;;;;22.18;73.74;100577.06;127300;1086;104223;-79
2023/09/22 07:11:11;;;;;;;4.70;3.40;;;;;;;22.24;74.18;100577.88;127375;1086;101930;-78
2023/09/22 07:13:44;;;;;;;5.77;3.30;;;;;;;22.36;73.85;100574.22;128279;1085;101871;-82
2023/09/22 07:16:15;;;;;;;7.72;3.20;;;;;;;22.42;73.57;100571.47;127285;1087;104302;-81
2023/09/22 07:18:53;;;;;;;6.23;3.23;;;;;;;22.48;73.73;100575.84;127966;1085;101845;-81
2023/09/22 07:21:54;;;;;;;8.00;3.50;;;;;;;22.58;73.09;100566.81;128017;1086;101875;-82
2023/09/22 07:24:58;;;;;;;4.87;3.53;;;;;;;22.67;73.22;100562.24;127681;1085;104169;-78
2023/09/22 07:35:02;;;;;;;9.63;3.47;;;;;;;22.94;72.10;100553.84;127173;1089;101938;-79
2023/09/22 07:38:16;;;;;;;7.93;3.10;;;;;;;23.04;72.16;100567.95;126922;1089;104231;-78
2023/09/22 07:40:49;;;;;;;7.13;3.20;;;;;;;23.10;71.40;100565.23;126505;1086;104152;-77
2023/09/22 07:43:19;;;;;;;3.73;3.00;;;;;;;23.16;71.54;100569.61;126501;1086;104254;-79
2023/09/22 07:46:04;;;;;;;4.30;3.13;;;;;;;23.23;71.10;100571.27;126178;1086;104281;-78
2023/09/22 07:48:52;;;;;;;;;;;;;;;;;;;;;
2023/09/22 07:52:15;;;;;;;;;;;;;;;;;;;;;
2023/09/22 07:55:21;;;;;;;6.37;3.30;;;;;;;23.35;70.17;100578.23;126571;1090;102000;-77
2023/09/22 07:58:14;;;;;;;5.90;3.10;;;;;;;23.42;70.08;100565.63;126777;1086;102029;-80
2023/09/22 08:00:59;;;;;;;4.33;2.80;;;;;;;23.53;69.84;100571.71;127440;1086;101816;-80
2023/09/22 08:03:43;;;;;;;6.07;2.90;;;;;;;23.65;69.61;100565.24;126735;1086;104197;-80
2023/09/22 08:06:31;;;;;;;;;;;;;;;;;;;;;
2023/09/22 08:09:28;;;;;;;5.90;2.80;;;;;;;23.93;68.60;100556.75;126663;1086;104203;-78
2023/09/22 08:12:46;;;;;;;5.70;2.80;;;;;;;23.98;68.35;100561.12;127779;1085;101951;-81
2023/09/22 08:15:30;;;;;;;6.43;3.17;;;;;;;24.02;67.92;100561.94;127503;1086;101815;-87
2023/09/22 08:18:02;;;;;;;6.53;2.97;;;;;;;24.11;67.29;100560.89;127015;1086;104716;-87
2023/09/22 08:20:33;;;;;;;7.13;3.23;;;;;;;24.26;67.44;100548.96;126834;1086;103515;-84
2023/09/22 08:23:05;;;;;;;4.37;3.00;;;;;;;24.40;67.06;100547.78;127066;1086;104066;-83
2023/09/22 08:26:05;;;;;;;5.43;2.80;;;;;;;24.56;66.75;100551.02;127625;1086;102179;-83
2023/09/22 08:28:50;;;;;;;4.23;2.97;;;;;;;24.61;65.70;100556.31;127445;1086;104165;-82
2023/09/22 08:31:26;;;;;;;4.07;2.90;;;;;;;24.60;64.89;100559.03;127699;1086;101852;-83
2023/09/22 08:34:05;;;;;;;6.53;2.73;;;;;;;24.64;65.27;100553.56;127517;1086;102345;-82
2023/09/22 08:36:55;;;;;;;4.53;2.63;;;;;;;24.66;64.04;100549.05;127472;1086;101948;-80
2023/09/22 08:40:11;;;;;;;4.33;3.00;;;;;;;24.75;64.24;100556.89;127394;1086;104217;-80
2023/09/22 08:43:14;;;;;;;;;;;;;;;;;;;;;
2023/09/22 08:46:37;;;;;;;3.23;2.67;;;;;;;25.12;63.82;100550.69;127414;1086;101746;-81
2023/09/22 08:50:15;;;;;;;5.42;2.98;;;;;;;25.32;62.84;100549.34;127267;1086;101905;-79
2023/09/22 08:52:58;;;;;;;4.07;2.50;;;;;;;25.48;61.78;100549.86;127358;1086;104335;-79
2023/09/22 08:55:40;;;;;;;4.27;2.90;;;;;;;25.65;61.07;100546.75;126954;1086;102008;-84
2023/09/22 08:58:55;;;;;;;5.47;2.63;;;;;;;25.77;60.29;100537.46;127314;1086;102056;-82
2023/09/22 09:01:53;;;;;;;;;;;;;;;;;;;;;
2023/09/22 09:05:24;;;;;;;5.07;2.73;;;;;;;25.95;60.46;100541.47;127334;1085;104312;-82
2023/09/22 09:08:47;;;;;;;;;;;;;;;;;;;;;
2023/09/22 09:11:30;;;;;;;6.17;2.90;;;;;;;26.37;58.86;100530.45;127051;1089;104213;-80
2023/09/22 09:14:28;;;;;;;5.03;2.80;;;;;;;26.44;58.16;100540.09;126521;1089;102571;-79
2023/09/22 09:16:58;;;;;;;8.57;3.00;;;;;;;26.40;57.04;100541.13;126466;1090;104482;-79
2023/09/22 09:19:32;;;;;;;3.80;2.40;;;;;;;26.44;57.04;100536.52;127351;1089;104399;-79
2023/09/22 09:22:13;;;;;;;6.17;2.87;;;;;;;26.45;56.09;100533.79;127237;1086;104152;-77
2023/09/22 09:24:50;;;;;;;5.97;2.93;;;;;;;26.48;55.33;100538.20;126490;1086;104271;-76
2023/09/22 09:28:04;;;;;;;5.17;2.80;;;;;;;26.44;54.56;100537.39;127656;1085;102002;-79
2023/09/22 09:30:53;;;;;;;3.87;2.70;;;;;;;26.46;54.40;100535.56;127640;1085;101857;-79
2023/09/22 09:33:26;;;;;;;4.93;2.50;;;;;;;26.43;53.76;100541.03;126636;1086;104204;-79
2023/09/22 09:36:26;;;;;;;4.00;2.47;;;;;;;26.50;54.45;100536.34;127791;1085;102079;-81
2023/09/22 09:40:00;;;;;;;9.23;2.63;;;;;;;26.69;53.52;100534.91;127333;1086;104152;-79
2023/09/22 09:43:20;;;;;;;6.40;2.73;;;;;;;27.02;53.30;100532.08;126663;1089;104203;-77
2023/09/22 09:46:02;;;;;;;3.23;2.53;;;;;;;27.22;52.55;100542.21;126120;1090;104218;-77
2023/09/22 09:49:00;;;;;;;6.93;2.70;;;;;;;27.26;51.54;100533.08;125903;1089;104231;-76
2023/09/22 09:51:46;;;;;;;3.07;2.77;;;;;;;27.24;51.19;100540.34;126561;1086;101914;-77
2023/09/22 09:54:44;;;;;;;3.90;2.60;;;;;;;27.16;50.72;100545.11;126745;1086;101928;-81
2023/09/22 09:57:36;;;;;;;6.27;2.80;;;;;;;27.29;50.93;100536.63;126720;1086;104150;-77
2023/09/22 10:00:35;;;;;;;3.47;2.23;;;;;;;27.49;50.04;100518.00;128626;1085;104075;-80
2023/09/22 10:03:14;;;;;;;3.80;2.30;;;;;;;27.54;50.16;100526.80;127624;1086;101870;-84
2023/09/22 10:05:44;;;;;;;4.27;2.50;;;;;;;27.48;50.29;100528.83;128168;1086;101807;-82
2023/09/22 10:08:18;;;;;;;4.87;3.20;;;;;;;27.44;49.67;100526.23;127345;1086;102931;-78
2023/09/22 10:10:57;;;;;;;4.17;2.53;;;;;;;27.38;49.32;100526.45;127355;1086;103441;-82
2023/09/22 10:13:29;;;;;;;3.97;2.50;;;;;;;27.33;48.46;100528.42;126988;1086;103333;-77
2023/09/22 10:16:03;;;;;;;4.62;2.85;;;;;;;27.29;48.38;100518.64;126700;1086;104146;-80
2023/09/22 10:18:45;;;;;;;;;;;;;;;27.33;48.03;100522.13;126724;1086;102092;-78
2023/09/22 10:21:43;;;;;;;8.97;2.80;;;;;;;27.39;48.42;100511.15;126467;1086;104283;-77
2023/09/22 10:24:23;;;;;;;6.00;2.70;;;;;;;27.29;48.67;100510.55;126293;1086;104225;-77
2023/09/22 10:27:14;;;;;;;3.50;2.53;;;;;;;27.14;48.05;100511.06;126513;1086;104158;-77
2023/09/22 10:29:52;;;;;;;6.10;2.97;;;;;;;27.02;48.33;100513.23;126425;1086;102563;-76
2023/09/22 10:32:38;;;;;;;6.90;2.70;;;;;;;27.14;48.27;100509.23;126508;1086;104188;-78
2023/09/22 10:36:35;;;;;;;;;;;;;;;;;;;;;
2023/09/22 10:39:14;;;;;;;4.90;2.47;;;;;;;27.32;48.55;100490.76;127473;1089;101958;-81
2023/09/22 10:42:13;;;;;;;7.50;3.00;;;;;;;27.47;48.46;100492.03;127063;1086;101932;-80
2023/09/22 10:45:27;;;;;;;;;;;;;;;;;;;;;
2023/09/22 10:48:35;;;;;;;7.40;3.00;;;;;;;27.87;47.78;100486.09;126779;1086;104153;-79
2023/09/22 10:51:59;;;;;;;5.25;2.72;;;;;;;27.78;47.56;100484.64;126841;1086;102070;-80
2023/09/22 10:55:23;;;;;;;8.00;2.73;;;;;;;27.70;47.44;100489.40;127685;1089;102555;-80
2023/09/22 10:58:04;;;;;;;10.60;2.85;;;;;;;27.55;46.85;100473.77;126558;1093;102110;-77
2023/09/22 11:00:44;;;;;;;3.47;2.30;;;;;;;27.40;46.45;100475.20;127189;1089;104204;-80
2023/09/22 11:04:06;;;;;;;;;;;;;;;;;;;;;
2023/09/22 11:07:04;;;;;;;6.40;3.23;;;;;;;27.32;46.10;100477.29;127144;1089;104181;-81
2023/09/22 11:14:08;;;;;;;8.10;3.50;;;;;;;27.42;45.60;100470.63;126899;1093;102625;-83
2023/09/22 11:16:49;;;;;;;6.87;3.10;;;;;;;27.42;44.72;100467.94;126759;1089;104175;-79
2023/09/22 11:19:28;;;;;;;6.30;3.30;;;;;;;27.46;44.71;100471.39;126312;1088;104261;-78
2023/09/22 11:22:30;;;;;;;5.27;3.03;;;;;;;27.49;45.14;100465.90;126273;1089;101858;-79
2023/09/22 11:25:04;;;;;;;4.30;2.43;;;;;;;27.46;44.85;100468.70;127291;1089;104234;-77
2023/09/22 11:32:06;;;;;;;;;;;;;;;;;;;;;
2023/09/22 11:35:07;;;;;;;9.60;2.90;;;;;;;27.58;44.82;100458.39;126935;1086;101825;-80
2023/09/22 11:37:45;;;;;;;6.70;2.47;;;;;;;27.59;44.52;100460.13;127888;1086;102016;-81
2023/09/22 11:40:16;;;;;;;9.67;3.33;;;;;;;27.62;44.49;100449.24;128361;1085;104214;-79
2023/09/22 11:42:53;;;;;;;5.13;2.70;;;;;;;27.74;44.43;100452.45;126874;1086;101981;-81
2023/09/22 11:45:32;;;;;;;6.33;2.70;;;;;;;27.78;44.36;100451.38;128271;1085;104232;-82
2023/09/22 11:49:01;;;;;;;7.47;2.90;;;;;;;27.77;44.25;100452.34;127436;1086;106781;-77
2023/09/22 11:51:58;;;;;;;6.90;3.63;;;;;;;27.74;44.18;100449.76;126925;1086;104162;-77
2023/09/22 11:54:57;;;;;;;5.55;2.80;;;;;;;27.72;44.31;100444.42;127082;1086;104258;-77
2023/09/22 11:57:27;;;;;;;5.73;2.70;;;;;;;27.68;44.20;100431.11;126793;1086;102234;-77
2023/09/22 12:00:00;;;;;;;4.93;2.80;;;;;;;27.65;44.00;100434.78;128175;1085;101807;-75
2023/09/22 12:02:32;;;;;;;7.43;2.97;;;;;;;27.70;44.26;100440.02;126559;1086;101955;-76
2023/09/22 12:05:04;;;;;;;8.63;3.10;;;;;;;27.71;44.14;100431.87;126516;1086;104300;-76
2023/09/22 12:07:36;;;;;;;10.50;2.60;;;;;;;27.68;43.77;100423.89;126855;1086;102032;-79
2023/09/22 12:10:21;;;;;;;5.37;2.67;;;;;;;27.67;44.22;100434.73;126756;1086;104325;-78
2023/09/22 12:13:05;;;;;;;9.77;3.33;;;;;;;27.68;44.42;100429.28;126622;1086;101926;-77
2023/09/22 12:15:36;;;;;;;8.60;3.17;;;;;;;27.64;44.32;100429.45;126387;1086;104126;-78
2023/09/22 12:18:14;;;;;;;7.13;2.70;;;;;;;27.57;44.51;100424.28;126550;1085;103586;-80
2023/09/22 12:20:48;;;;;;;11.63;3.10;;;;;;;27.57;44.27;100428.80;126579;1086;104225;-79
2023/09/22 12:23:25;;;;;;;7.17;3.27;;;;;;;27.65;44.49;100436.61;127703;1086;104219;-79
2023/09/22 12:25:58;;;;;;;12.40;2.80;;;;;;;27.70;43.96;100438.19;127393;1085;103508;-78
2023/09/22 12:28:29;;;;;;;8.43;2.70;;;;;;;27.73;44.17;100426.42;126602;1086;104117;-77
2023/09/22 12:31:05;;;;;;;8.13;2.63;;;;;;;27.76;44.10;100429.00;127776;1085;104165;-81
2023/09/22 12:33:41;;;;;;;5.83;2.50;;;;;;;27.70;43.55;100426.53;126923;1086;101842;-79
2023/09/22 12:40:18;;;;;;;8.40;2.73;;;;;;;27.50;43.63;100429.95;127371;1089;117891;-85
2023/09/22 12:43:37;;;;;;;6.93;2.43;;;;;;;27.37;43.97;100433.07;127012;1089;102262;-83
2023/09/22 12:46:58;;;;;;;9.47;2.47;;;;;;;27.29;43.60;100429.74;126731;1089;102143;-81
2023/09/22 12:49:48;;;;;;;5.80;2.70;;;;;;;27.25;43.97;100428.08;126636;1092;101832;-82
2023/09/22 12:53:14;;;;;;;10.17;3.00;;;;;;;27.26;43.72;100427.16;126746;1093;101964;-80
2023/09/22 12:56:30;;;;;;;8.03;2.43;;;;;;;27.23;44.26;100425.44;126315;1096;102230;-80